Pagrindinis puslapis
METAR-TAF:

METAR-TAF

Oro uostai :

Pastas, Kolumbija

platuma: 01-25N, ilguma: 077-16W, Aukštis: 1826 m

Dabartinis oras

Ataskaita buvo paskelbta 38 minutes, ne 23:00 UTC
Ramus vėjas
Temperatūra 17°C
Drėgmė 94%
Slėgis 1020 hPa
Matomumas: 1600 m
Su prošvaistėmis ne aukštis 1000 ft
lietus, Rūkas lopais

METAR: SKPS 222300Z 00000KT 1600 -RA BCFG BKN010 17/16 A3011

Laikas: 18:38 (23:38 UTC)


TAF: trūkstamas

Orai ataskaitas ir orų prognozės (METAR, TAF).

turimą stotys yra geltonos ir raudonos taškus žemėlapyje.

Perkelti pele per norėdami pamatyti stoties vardą.

Tada spustelėkite, norėdami matyti oro stebėjimo ir prognozės.

Norėdami pakeisti žemėlapį: spustelėkite ant žalios mygtukų su juodo kryžiaus žemyn,; žalią mygtuką su brūkšneliu, jei norite nutolinti; arba žalių rodyklių gretimoms žemėlapius.


METAR-TAF: